• Join FlightAware (Why Join?)
  • Login
  • US Flag 
08:46AM EDT


 

Airport Tracker/Info


-or-


 

Live Flight TrackerFlight Track Log ✈ ASQ5861 ✈ 22-Apr-2013 ✈ CYWG - KORD

Flight Track Log - Related Links

Times and Time Zones

All times are in EDT time to prevent confusion due to time zone crossing. See the ASQ5861 flight status page for this flight to view local times or setup timezone preferences in your user account.

Time Position Orientation Groundspeed Altitude Reporting Facility
EDT Latitude Longitude Course Direction KTS MPH feet Rate Location/Type
06:54PM 49.9333 -97.2333 147° Southeast 170 196 3,200  Level Winnipeg Center
06:55PM 49.9667 -97.1500 58° Northeast 220 253 6,300 2,880 Climbing Winnipeg Center
06:56PM 49.9167 -97.1167 157° South 240 276 9,000 2,220 Climbing Winnipeg Center
06:57PM 49.8333 -97.1167 180° South 280 322 10,800 2,220 Climbing Winnipeg Center
06:58PM 49.7500 -97.0667 159° South 310 357 13,500 2,400 Climbing Winnipeg Center
06:59PM 49.4646 -96.7963 150° Southeast  Level FlightAware Approximate
06:59PM 49.6833 -97.0167 154° Southeast 320 368 15,700  Level Winnipeg Center
07:00PM 49.3743 -96.7076 147° Southeast  Level FlightAware Approximate
07:00PM 49.6000 -96.9333 147° Southeast 320 368 17,800  Level Winnipeg Center
07:01PM 49.5333 -96.8667 147° Southeast 320 368 19,900 1,980 Climbing Winnipeg Center
07:02PM 49.4500 -96.7833 147° Southeast 340 391 21,800 1,980 Climbing Winnipeg Center
07:03PM 49.3667 -96.7167 152° Southeast 340 391 23,900 1,980 Climbing Winnipeg Center
07:04PM 49.3000 -96.6333 141° Southeast 340 391 25,800 1,980 Climbing Winnipeg Center
07:05PM 49.2167 -96.5500 147° Southeast 340 391 27,900 1,980 Climbing Winnipeg Center
07:06PM 49.1333 -96.4833 152° Southeast 330 380 29,800 1,980 Climbing Winnipeg Center
07:07PM 49.0333 -96.4000 151° Southeast 330 380 31,900 1,560 Climbing Winnipeg Center
07:08PM 48.9667 -96.3333 147° Southeast 330 380 33,000 540 Climbing Winnipeg Center
07:09PM 48.8833 -96.2500 147° Southeast 360 414 33,000  Level Winnipeg Center
07:10PM 48.7833 -96.1500 147° Southeast 390 449 33,000  Level Winnipeg Center
07:11PM 48.6833 -96.0833 156° South 400 460 33,000  Level Winnipeg Center
07:12PM 48.6628 -96.0444 129° Southeast 405 466 33,000 -660 Level Minneapolis Center
07:13PM 48.5700 -95.9606 149° Southeast 396 456 32,000 -900 Descending Minneapolis Center
07:14PM 48.4825 -95.8797 149° Southeast 379 436 31,000 -480 Descending Minneapolis Center
07:15PM 48.3722 -95.8108 157° South 363 418 31,000  Level Minneapolis Center
07:16PM 48.2744 -95.7917 173° South 355 409 31,000  Level Minneapolis Center
07:17PM 48.1553 -95.7692 173° South 357 411 31,000  Level Minneapolis Center
07:18PM 48.0750 -95.7533 172° South 361 415 31,000  Level Minneapolis Center
07:19PM 47.9572 -95.7303 173° South 359 413 31,000  Level Minneapolis Center
07:20PM 47.8600 -95.7108 172° South 355 409 31,000  Level Minneapolis Center
07:21PM 47.7622 -95.6936 173° South 354 407 31,000  Level Minneapolis Center
07:22PM 47.6647 -95.6764 173° South 353 406 31,000  Level Minneapolis Center
07:23PM 47.5678 -95.6597 173° South 351 404 31,000  Level Minneapolis Center
07:24PM 47.4686 -95.6417 173° South 349 402 31,000  Level Minneapolis Center
07:25PM 47.3708 -95.6250 173° South 353 406 31,000  Level Minneapolis Center
07:26PM 47.2622 -95.5408 152° Southeast 388 447 31,000  Level Minneapolis Center
07:27PM 47.1750 -95.4469 144° Southeast 392 451 31,000  Level Minneapolis Center
07:28PM 47.0881 -95.3536 144° Southeast 389 448 31,000  Level Minneapolis Center
07:30PM 47.0008 -95.2606 144° Southeast 389 448 31,000  Level Minneapolis Center
07:31PM 46.9119 -95.1672 144° Southeast 394 453 31,000  Level Minneapolis Center
07:32PM 46.8233 -95.0733 144° Southeast 395 455 31,000  Level Minneapolis Center
07:33PM 46.7175 -94.9611 144° Southeast 395 455 31,000  Level Minneapolis Center
07:34PM 46.6278 -94.8686 145° Southeast 395 455 31,000  Level Minneapolis Center
07:35PM 46.5369 -94.7750 145° Southeast 400 460 31,000  Level Minneapolis Center
07:36PM 46.4461 -94.6808 144° Southeast 402 463 31,000  Level Minneapolis Center
07:37PM 46.3558 -94.5878 145° Southeast 401 461 31,000  Level Minneapolis Center
07:38PM 46.2653 -94.4939 144° Southeast 402 463 31,000  Level Minneapolis Center
07:39PM 46.1789 -94.4056 145° Southeast 401 461 31,000  Level Minneapolis Center
07:40PM 46.0700 -94.2944 145° Southeast 401 461 31,000  Level Minneapolis Center
07:41PM 45.9783 -94.2014 145° Southeast 403 464 31,000  Level Minneapolis Center
07:42PM 45.8681 -94.0906 145° Southeast 404 465 31,000  Level Minneapolis Center
07:43PM 45.7572 -93.9789 145° Southeast 407 468 31,000  Level Minneapolis Center
07:44PM 45.6653 -93.8858 145° Southeast 407 468 31,000  Level Minneapolis Center
07:45PM 45.5531 -93.7736 145° Southeast 409 471 31,000  Level Minneapolis Center
07:46PM 45.4603 -93.6811 145° Southeast 410 472 31,000  Level Minneapolis Center
07:47PM 45.3811 -93.5608 133° Southeast 422 486 31,000  Level Minneapolis Center
07:48PM 45.3106 -93.4217 126° Southeast 433 498 31,000  Level Minneapolis Center
07:50PM 45.2275 -93.2547 125° Southeast 432 497 31,000  Level Minneapolis Center
07:51PM 45.1578 -93.1136 125° Southeast 434 499 31,000  Level Minneapolis Center
07:52PM 45.0861 -92.9728 126° Southeast 437 503 31,000  Level Minneapolis Center
07:53PM 45.0164 -92.8308 125° Southeast 436 502 31,000  Level Minneapolis Center
07:54PM 44.9450 -92.6911 126° Southeast 437 503 31,000  Level Minneapolis Center
07:55PM 44.8731 -92.5500 126° Southeast 439 505 31,000  Level Minneapolis Center
07:56PM 44.8000 -92.4089 126° Southeast 443 510 31,000  Level Minneapolis Center
07:57PM 44.7281 -92.2686 126° Southeast 443 510 31,000  Level Minneapolis Center
07:58PM 44.6411 -92.1003 126° Southeast 444 511 31,000  Level Minneapolis Center
07:59PM 44.5681 -91.9603 126° Southeast 446 513 31,000  Level Minneapolis Center
08:00PM 44.4961 -91.8197 126° Southeast 445 512 31,000  Level Minneapolis Center
08:01PM 44.4225 -91.6800 126° Southeast 446 513 31,000  Level Minneapolis Center
08:02PM 44.3489 -91.5419 127° Southeast 445 512 31,000  Level Minneapolis Center
08:03PM 44.2753 -91.4025 126° Southeast 447 514 31,000  Level Minneapolis Center
08:04PM 44.1919 -91.2442 126° Southeast 446 513 31,000  Level Minneapolis Center
08:05PM 44.1194 -91.1075 126° Southeast 443 510 31,000  Level Minneapolis Center
08:06PM 44.0458 -90.9703 127° Southeast 444 511 31,000  Level Minneapolis Center
08:07PM 43.9728 -90.8356 127° Southeast 441 507 31,000  Level Minneapolis Center
08:08PM 43.8997 -90.6997 127° Southeast 441 507 31,000  Level Minneapolis Center
08:09PM 43.8139 -90.5425 127° Southeast 439 505 31,000 -660 Level Minneapolis Center
08:10PM 43.7394 -90.4050 127° Southeast 439 505 29,700 -1,320 Descending Minneapolis Center
08:11PM 43.6700 -90.2775 127° Southeast 423 487 28,300 -1,140 Descending Minneapolis Center
08:12PM 43.6003 -90.1522 128° Southeast 419 482 27,400 -1,020 Descending Minneapolis Center
08:13PM 43.5156 -89.9972 127° Southeast 429 494 26,200 -1,080 Descending Minneapolis Center
08:14PM 43.4411 -89.8644 128° Southeast 435 501 25,300 -960 Descending Minneapolis Center
08:15PM 43.3567 -89.7164 128° Southeast 424 488 24,100 -1,200 Descending Chicago Center
08:17PM 43.2850 -89.5889 128° Southeast 423 487 22,600 -1,740 Descending Chicago Center
08:18PM 43.2125 -89.4619 128° Southeast 423 487 20,600 -2,100 Descending Chicago Center
08:19PM 43.1231 -89.3367 134° Southeast 402 463 18,300 -2,040 Descending Chicago Center
08:20PM 43.0225 -89.2911 162° South 385 443 16,400 -1,800 Descending Chicago Center
08:21PM 42.9236 -89.2511 163° South 375 432 14,600 -1,560 Descending Chicago Center
08:22PM 42.8278 -89.2139 164° South 361 415 13,200 -1,020 Descending Chicago Center
08:23PM 42.7356 -89.1756 163° South 349 402 12,600 -780 Descending Chicago Center
08:24PM 42.6544 -89.1431 164° South 309 356 11,700 -780 Descending Chicago Center
08:25PM 42.5581 -89.1056 164° South 308 354 11,000 -360 Descending Chicago Center
08:26PM 42.4767 -89.0742 164° South 305 351 11,000  Level Chicago Center
08:27PM 42.3956 -89.0414 163° South 304 350 11,000  Level Chicago Center
08:28PM 42.3669 -88.9428 111° Southeast 302 348 11,000  Level Chicago Center
08:29PM 42.3686 -88.8278 89° East 305 351 11,000 -420 Level Chicago Center
08:30PM 42.3708 -88.7136 88° East 304 350 10,200 -900 Descending Chicago Center
08:31PM 42.3733 -88.5833 88° East 298 343 9,200 -600 Descending Chicago Center
08:32PM 42.3700 -88.4750 92° East 293 337 9,000 -240 Descending Chicago Center
08:33PM 42.3503 -88.3678 104° East 295 339 8,800 -540 Descending Chicago Center
08:34PM 42.3158 -88.2936 122° Southeast 269 310 8,000 -720 Descending Chicago Center
08:35PM 42.2458 -88.2261 144° Southeast 259 298 7,400 -720 Descending Chicago Center
08:36PM 42.1931 -88.1633 139° Southeast 255 293 6,600 -1,260 Descending Chicago Center
08:37PM 42.1403 -88.1042 140° Southeast 250 288 4,900 -1,800 Descending Chicago Center
08:38PM 42.1000 -88.0667 145° Southeast 237 273 3,600 -1,500 Descending Chicago TRACON
08:39PM 42.0667 -88.0167 132° Southeast 209 241 2,500 -960 Descending Chicago TRACON
08:40PM 42.0333 -87.9833 143° Southeast 125 144 1,700 -840 Descending Chicago TRACON
08:42PM 41.9817 -87.9067 143° Southeast  Level Estimated
08:49PM 41.9817 -87.9067 143° Southeast  Level Estimated